Surface observations / Quebec / CYHU

Quebec | Canada | USA | France | UK | Europe | Elsewhere

Display: Info & Location for CYHU | Help decoding METAR

YHU SAINT-HUBERT ARPT QB CN
Raw surface observations for station CYHU
CYHU 230200Z AUTO 02018KT 9SM BKN070 BKN085 OVC180 07/01 A3021 RMK SLP232=
CYHU 230100Z AUTO 03015G22KT 9SM BKN075 OVC190 08/01 A3023 RMK SLP237=
CYHU 230000Z AUTO 03014G22KT 9SM FEW170 08/01 A3023 RMK SLP237=
CYHU 222300Z AUTO 04012G20KT 9SM BKN090 09/02 A3024 RMK SLP241=
CYHU 222200Z AUTO 02012KT 9SM FEW090 10/02 A3023 RMK SLP238=
CYHU 222100Z AUTO 02017KT 9SM OVC090 11/03 A3023 RMK SLP237=
CYHU 222000Z AUTO 03017G22KT 9SM FEW065 12/04 A3023 RMK SLP237=
CYHU 221900Z AUTO 02013G19KT 9SM OVC060 12/04 A3022 RMK SLP235=
CYHU 221800Z AUTO 03015G21KT 9SM OVC060 11/04 A3025 RMK SLP244=
CYHU 221700Z AUTO 05014G20KT 9SM OVC055 10/03 A3028 RMK SLP253=
CYHU 221600Z AUTO 03016G21KT 9SM OVC060 09/03 A3028 RMK SLP256=
CYHU 221500Z AUTO 04016G23KT 9SM OVC060 08/03 A3028 RMK SLP256=
CYHU 221417Z AUTO 04013G21KT 9SM BKN050 OVC060 07/02 A3029 RMK SLP258=
CYHU 221405Z AUTO 04013G22KT 9SM -RA BKN048 OVC060 07/03 A3029 RMK SLP257=
CYHU 221400Z AUTO 04015G22KT 9SM SCT050 OVC060 07/02 A3028 RMK SLP256=
CYHU 221340Z AUTO 04012G22KT 9SM FEW032 BKN060 OVC071 07/03 A3029 RMK SLP257=
CYHU 221305Z AUTO 03017G25KT 9SM -RA SCT030 OVC065 07/02 A3028 RMK SLP253=
CYHU 221300Z AUTO 04018G25KT 9SM BKN030 OVC065 07/02 A3028 RMK SLP253=
CYHU 221256Z AUTO 03016G22KT 9SM BKN030 OVC065 07/02 A3028 RMK SLP253=
CYHU 221228Z AUTO 04014G20KT 9SM -RA BKN033 OVC060 07/01 A3028 RMK SLP253=
CYHU 221200Z AUTO 04015G22KT 9SM SCT033 BKN043 OVC055 06/01 A3026 RMK SLP248=
CYHU 221100Z AUTO 04013KT 9SM SCT023 OVC042 06/01 A3024 RMK SLP240=
CYHU 221057Z AUTO 04013KT 9SM SCT023 OVC042 06/01 A3024 RMK SLP240=
CYHU 221029Z AUTO 03010G17KT 9SM BKN023 BKN065 06/01 A3023 RMK SLP237=
CYHU 220900Z AUTO 04011G17KT 9SM OVC055 06/01 A3020 RMK SLP227=
CYHU 220800Z AUTO 05015G21KT 9SM BKN040 OVC050 07/02 A3018 RMK SLP221=
CYHU 220700Z AUTO 04014G19KT 9SM BKN035 OVC046 06/02 A3017 RMK SLP219=
CYHU 220600Z AUTO 03014G21KT 9SM OVC039 06/02 A3018 RMK SLP221=
CYHU 220524Z AUTO 03017KT 9SM SCT022 BKN035 OVC044 06/02 A3018 RMK SLP220=
CYHU 220500Z AUTO 03015G21KT 9SM BKN022 OVC050 06/02 A3018 RMK SLP222=
CYHU 220414Z AUTO 03014KT 9SM OVC060 06/02 A3018 RMK SLP221=
CYHU 220300Z AUTO 02013KT 9SM SCT060 BKN072 OVC110 06/03 A3017 RMK SLP218=